sensor_id;sensor_type;location;lat;lon;timestamp;P1;durP1;ratioP1;P2;durP2;ratioP2
11970;SDS011;6045;42.682;23.294;2022-09-24T00:01:19;3.37;;;1.87;;
11970;SDS011;6045;42.682;23.294;2022-09-24T00:03:48;1.70;;;1.50;;
11970;SDS011;6045;42.682;23.294;2022-09-24T00:06:16;3.07;;;1.43;;
11970;SDS011;6045;42.682;23.294;2022-09-24T00:08:47;1.73;;;1.27;;
11970;SDS011;6045;42.682;23.294;2022-09-24T00:11:16;1.63;;;1.53;;
11970;SDS011;6045;42.682;23.294;2022-09-24T00:13:47;1.60;;;1.50;;
11970;SDS011;6045;42.682;23.294;2022-09-24T00:16:15;1.77;;;1.07;;
11970;SDS011;6045;42.682;23.294;2022-09-24T00:18:43;1.67;;;1.40;;
11970;SDS011;6045;42.682;23.294;2022-09-24T00:21:12;0.77;;;0.77;;
11970;SDS011;6045;42.682;23.294;2022-09-24T00:23:40;1.53;;;1.13;;
11970;SDS011;6045;42.682;23.294;2022-09-24T00:26:08;1.10;;;1.10;;
11970;SDS011;6045;42.682;23.294;2022-09-24T00:28:55;2.13;;;1.43;;
11970;SDS011;6045;42.682;23.294;2022-09-24T00:31:22;1.53;;;1.43;;
11970;SDS011;6045;42.682;23.294;2022-09-24T00:33:49;1.37;;;1.10;;
11970;SDS011;6045;42.682;23.294;2022-09-24T00:36:16;2.20;;;1.80;;
11970;SDS011;6045;42.682;23.294;2022-09-24T00:38:47;0.97;;;0.90;;
11970;SDS011;6045;42.682;23.294;2022-09-24T00:41:15;1.70;;;1.60;;
11970;SDS011;6045;42.682;23.294;2022-09-24T00:43:46;0.77;;;0.70;;
11970;SDS011;6045;42.682;23.294;2022-09-24T00:46:17;1.00;;;1.00;;
11970;SDS011;6045;42.682;23.294;2022-09-24T00:48:50;1.00;;;0.90;;
11970;SDS011;6045;42.682;23.294;2022-09-24T00:51:20;1.50;;;1.37;;
11970;SDS011;6045;42.682;23.294;2022-09-24T00:53:50;1.47;;;1.27;;
11970;SDS011;6045;42.682;23.294;2022-09-24T00:56:26;1.27;;;1.20;;
11970;SDS011;6045;42.682;23.294;2022-09-24T00:59:00;2.50;;;1.57;;
11970;SDS011;6045;42.682;23.294;2022-09-24T01:01:30;1.50;;;1.40;;
11970;SDS011;6045;42.682;23.294;2022-09-24T01:03:57;1.00;;;0.93;;
11970;SDS011;6045;42.682;23.294;2022-09-24T01:06:26;1.90;;;1.40;;
11970;SDS011;6045;42.682;23.294;2022-09-24T01:08:53;1.37;;;1.00;;
11970;SDS011;6045;42.682;23.294;2022-09-24T01:11:25;1.40;;;1.30;;
11970;SDS011;6045;42.682;23.294;2022-09-24T01:14:05;2.13;;;1.10;;
11970;SDS011;6045;42.682;23.294;2022-09-24T01:16:45;1.30;;;0.93;;
11970;SDS011;6045;42.682;23.294;2022-09-24T01:19:24;1.40;;;1.30;;
11970;SDS011;6045;42.682;23.294;2022-09-24T01:22:21;1.53;;;1.43;;
11970;SDS011;6045;42.682;23.294;2022-09-24T01:24:58;1.03;;;0.97;;
11970;SDS011;6045;42.682;23.294;2022-09-24T01:27:31;1.07;;;0.97;;
11970;SDS011;6045;42.682;23.294;2022-09-24T01:30:12;1.00;;;0.90;;
11970;SDS011;6045;42.682;23.294;2022-09-24T01:32:40;1.53;;;1.00;;
11970;SDS011;6045;42.682;23.294;2022-09-24T01:35:13;1.50;;;1.40;;
11970;SDS011;6045;42.682;23.294;2022-09-24T01:37:48;0.80;;;0.77;;
11970;SDS011;6045;42.682;23.294;2022-09-24T01:40:20;1.33;;;1.23;;
11970;SDS011;6045;42.682;23.294;2022-09-24T01:42:50;1.40;;;1.27;;
11970;SDS011;6045;42.682;23.294;2022-09-24T01:45:20;1.50;;;1.40;;
11970;SDS011;6045;42.682;23.294;2022-09-24T01:47:47;1.53;;;1.20;;
11970;SDS011;6045;42.682;23.294;2022-09-24T01:50:15;1.40;;;1.13;;
11970;SDS011;6045;42.682;23.294;2022-09-24T01:52:44;2.70;;;1.03;;
11970;SDS011;6045;42.682;23.294;2022-09-24T01:55:16;2.37;;;1.63;;
11970;SDS011;6045;42.682;23.294;2022-09-24T01:57:49;2.30;;;1.67;;
11970;SDS011;6045;42.682;23.294;2022-09-24T02:00:21;1.50;;;1.30;;
11970;SDS011;6045;42.682;23.294;2022-09-24T02:02:49;3.37;;;1.27;;
11970;SDS011;6045;42.682;23.294;2022-09-24T02:05:23;1.47;;;1.37;;
11970;SDS011;6045;42.682;23.294;2022-09-24T02:07:57;2.40;;;1.37;;
11970;SDS011;6045;42.682;23.294;2022-09-24T02:10:31;0.90;;;0.90;;
11970;SDS011;6045;42.682;23.294;2022-09-24T02:13:04;1.73;;;1.63;;
11970;SDS011;6045;42.682;23.294;2022-09-24T02:15:40;2.43;;;2.23;;
11970;SDS011;6045;42.682;23.294;2022-09-24T02:18:11;2.93;;;1.20;;
11970;SDS011;6045;42.682;23.294;2022-09-24T02:20:42;2.80;;;1.17;;
11970;SDS011;6045;42.682;23.294;2022-09-24T02:23:10;0.80;;;0.80;;
11970;SDS011;6045;42.682;23.294;2022-09-24T02:25:40;4.53;;;1.57;;
11970;SDS011;6045;42.682;23.294;2022-09-24T02:28:13;1.50;;;1.40;;
11970;SDS011;6045;42.682;23.294;2022-09-24T02:30:42;2.27;;;1.70;;
11970;SDS011;6045;42.682;23.294;2022-09-24T02:33:14;3.17;;;1.67;;
11970;SDS011;6045;42.682;23.294;2022-09-24T02:35:59;6.47;;;2.20;;
11970;SDS011;6045;42.682;23.294;2022-09-24T02:38:26;2.63;;;2.20;;
11970;SDS011;6045;42.682;23.294;2022-09-24T02:40:53;2.70;;;2.20;;
11970;SDS011;6045;42.682;23.294;2022-09-24T02:43:21;2.70;;;1.70;;
11970;SDS011;6045;42.682;23.294;2022-09-24T02:45:49;1.83;;;1.67;;
11970;SDS011;6045;42.682;23.294;2022-09-24T02:48:16;3.53;;;1.87;;
11970;SDS011;6045;42.682;23.294;2022-09-24T02:50:44;2.80;;;1.67;;
11970;SDS011;6045;42.682;23.294;2022-09-24T02:53:11;1.23;;;1.13;;
11970;SDS011;6045;42.682;23.294;2022-09-24T02:55:37;1.97;;;1.87;;
11970;SDS011;6045;42.682;23.294;2022-09-24T02:58:04;2.67;;;1.90;;
11970;SDS011;6045;42.682;23.294;2022-09-24T03:00:31;1.33;;;1.23;;
11970;SDS011;6045;42.682;23.294;2022-09-24T03:02:59;1.47;;;1.33;;
11970;SDS011;6045;42.682;23.294;2022-09-24T03:05:26;1.50;;;1.17;;
11970;SDS011;6045;42.682;23.294;2022-09-24T03:07:52;3.00;;;1.30;;
11970;SDS011;6045;42.682;23.294;2022-09-24T03:10:20;1.93;;;1.60;;
11970;SDS011;6045;42.682;23.294;2022-09-24T03:12:47;1.97;;;1.27;;
11970;SDS011;6045;42.682;23.294;2022-09-24T03:15:13;2.67;;;1.50;;
11970;SDS011;6045;42.682;23.294;2022-09-24T03:17:40;2.13;;;1.73;;
11970;SDS011;6045;42.682;23.294;2022-09-24T03:20:08;1.40;;;1.30;;
11970;SDS011;6045;42.682;23.294;2022-09-24T03:22:35;2.37;;;1.23;;
11970;SDS011;6045;42.682;23.294;2022-09-24T03:25:04;1.00;;;0.90;;
11970;SDS011;6045;42.682;23.294;2022-09-24T03:27:35;1.53;;;1.27;;
11970;SDS011;6045;42.682;23.294;2022-09-24T03:30:02;3.90;;;1.73;;
11970;SDS011;6045;42.682;23.294;2022-09-24T03:32:46;2.53;;;2.03;;
11970;SDS011;6045;42.682;23.294;2022-09-24T03:35:15;1.63;;;1.20;;
11970;SDS011;6045;42.682;23.294;2022-09-24T03:37:42;2.57;;;2.00;;
11970;SDS011;6045;42.682;23.294;2022-09-24T03:40:09;1.73;;;1.63;;
11970;SDS011;6045;42.682;23.294;2022-09-24T03:42:35;1.73;;;1.63;;
11970;SDS011;6045;42.682;23.294;2022-09-24T03:45:03;3.10;;;2.07;;
11970;SDS011;6045;42.682;23.294;2022-09-24T03:47:32;1.97;;;1.80;;
11970;SDS011;6045;42.682;23.294;2022-09-24T03:49:59;1.53;;;1.30;;
11970;SDS011;6045;42.682;23.294;2022-09-24T03:52:28;1.63;;;1.33;;
11970;SDS011;6045;42.682;23.294;2022-09-24T03:54:55;3.03;;;1.30;;
11970;SDS011;6045;42.682;23.294;2022-09-24T03:57:22;0.60;;;0.60;;
11970;SDS011;6045;42.682;23.294;2022-09-24T03:59:51;1.67;;;1.30;;
11970;SDS011;6045;42.682;23.294;2022-09-24T04:02:19;1.37;;;1.27;;
11970;SDS011;6045;42.682;23.294;2022-09-24T04:04:46;1.27;;;1.17;;
11970;SDS011;6045;42.682;23.294;2022-09-24T04:07:12;1.40;;;1.30;;
11970;SDS011;6045;42.682;23.294;2022-09-24T04:09:40;1.10;;;1.00;;
11970;SDS011;6045;42.682;23.294;2022-09-24T04:12:07;2.40;;;1.47;;
11970;SDS011;6045;42.682;23.294;2022-09-24T04:14:34;1.63;;;1.43;;
11970;SDS011;6045;42.682;23.294;2022-09-24T04:17:01;1.70;;;1.60;;
11970;SDS011;6045;42.682;23.294;2022-09-24T04:19:28;1.33;;;1.20;;
11970;SDS011;6045;42.682;23.294;2022-09-24T04:21:56;1.83;;;1.47;;
11970;SDS011;6045;42.682;23.294;2022-09-24T04:24:23;1.70;;;1.50;;
11970;SDS011;6045;42.682;23.294;2022-09-24T04:26:51;1.30;;;1.30;;
11970;SDS011;6045;42.682;23.294;2022-09-24T04:29:17;2.50;;;2.17;;
11970;SDS011;6045;42.682;23.294;2022-09-24T04:31:44;2.23;;;2.03;;
11970;SDS011;6045;42.682;23.294;2022-09-24T04:34:11;2.00;;;1.90;;
11970;SDS011;6045;42.682;23.294;2022-09-24T04:36:38;1.90;;;1.80;;
11970;SDS011;6045;42.682;23.294;2022-09-24T04:39:05;1.20;;;1.13;;
11970;SDS011;6045;42.682;23.294;2022-09-24T04:41:32;1.53;;;1.03;;
11970;SDS011;6045;42.682;23.294;2022-09-24T04:44:00;3.17;;;1.27;;
11970;SDS011;6045;42.682;23.294;2022-09-24T04:46:27;1.23;;;1.13;;
11970;SDS011;6045;42.682;23.294;2022-09-24T04:48:57;1.23;;;1.13;;
11970;SDS011;6045;42.682;23.294;2022-09-24T04:51:26;3.33;;;1.30;;
11970;SDS011;6045;42.682;23.294;2022-09-24T04:53:53;1.40;;;1.30;;
11970;SDS011;6045;42.682;23.294;2022-09-24T04:56:20;2.07;;;1.30;;
11970;SDS011;6045;42.682;23.294;2022-09-24T04:58:49;2.67;;;1.97;;
11970;SDS011;6045;42.682;23.294;2022-09-24T05:01:17;2.43;;;1.80;;
11970;SDS011;6045;42.682;23.294;2022-09-24T05:03:44;2.10;;;1.90;;
11970;SDS011;6045;42.682;23.294;2022-09-24T05:06:11;2.53;;;1.40;;
11970;SDS011;6045;42.682;23.294;2022-09-24T05:08:38;2.30;;;1.67;;
11970;SDS011;6045;42.682;23.294;2022-09-24T05:11:05;3.43;;;2.37;;
11970;SDS011;6045;42.682;23.294;2022-09-24T05:13:31;2.60;;;2.40;;
11970;SDS011;6045;42.682;23.294;2022-09-24T05:15:59;2.93;;;2.13;;
11970;SDS011;6045;42.682;23.294;2022-09-24T05:18:27;1.73;;;1.53;;
11970;SDS011;6045;42.682;23.294;2022-09-24T05:20:54;2.10;;;1.57;;
11970;SDS011;6045;42.682;23.294;2022-09-24T05:23:21;2.43;;;2.23;;
11970;SDS011;6045;42.682;23.294;2022-09-24T05:25:47;1.73;;;1.60;;
11970;SDS011;6045;42.682;23.294;2022-09-24T05:28:49;1.70;;;1.43;;
11970;SDS011;6045;42.682;23.294;2022-09-24T05:31:18;2.30;;;2.10;;
11970;SDS011;6045;42.682;23.294;2022-09-24T05:36:40;1.90;;;1.57;;
11970;SDS011;6045;42.682;23.294;2022-09-24T05:39:11;1.60;;;1.50;;
11970;SDS011;6045;42.682;23.294;2022-09-24T05:41:38;3.97;;;2.80;;
11970;SDS011;6045;42.682;23.294;2022-09-24T05:44:05;2.43;;;2.23;;
11970;SDS011;6045;42.682;23.294;2022-09-24T05:46:32;2.30;;;2.10;;
11970;SDS011;6045;42.682;23.294;2022-09-24T05:49:01;3.17;;;2.27;;
11970;SDS011;6045;42.682;23.294;2022-09-24T05:51:28;2.87;;;2.67;;
11970;SDS011;6045;42.682;23.294;2022-09-24T05:53:54;2.53;;;2.33;;
11970;SDS011;6045;42.682;23.294;2022-09-24T05:56:21;2.20;;;1.97;;
11970;SDS011;6045;42.682;23.294;2022-09-24T05:58:48;2.37;;;2.17;;
11970;SDS011;6045;42.682;23.294;2022-09-24T06:01:15;2.60;;;1.90;;
11970;SDS011;6045;42.682;23.294;2022-09-24T06:03:42;2.87;;;2.20;;
11970;SDS011;6045;42.682;23.294;2022-09-24T06:06:10;2.40;;;2.20;;
11970;SDS011;6045;42.682;23.294;2022-09-24T06:08:37;2.83;;;1.97;;
11970;SDS011;6045;42.682;23.294;2022-09-24T06:11:04;3.80;;;3.17;;
11970;SDS011;6045;42.682;23.294;2022-09-24T06:13:32;3.00;;;2.17;;
11970;SDS011;6045;42.682;23.294;2022-09-24T06:16:00;2.05;;;1.85;;
11970;SDS011;6045;42.682;23.294;2022-09-24T06:18:27;3.10;;;2.03;;
11970;SDS011;6045;42.682;23.294;2022-09-24T06:20:54;3.88;;;3.20;;
11970;SDS011;6045;42.682;23.294;2022-09-24T06:23:22;3.15;;;2.35;;
11970;SDS011;6045;42.682;23.294;2022-09-24T06:25:49;3.15;;;2.17;;
11970;SDS011;6045;42.682;23.294;2022-09-24T06:28:16;4.03;;;2.40;;
11970;SDS011;6045;42.682;23.294;2022-09-24T06:30:43;3.42;;;2.83;;
11970;SDS011;6045;42.682;23.294;2022-09-24T06:33:10;2.55;;;2.22;;
11970;SDS011;6045;42.682;23.294;2022-09-24T06:35:39;4.45;;;3.33;;
11970;SDS011;6045;42.682;23.294;2022-09-24T06:38:10;5.40;;;2.95;;
11970;SDS011;6045;42.682;23.294;2022-09-24T06:40:42;4.03;;;3.08;;
11970;SDS011;6045;42.682;23.294;2022-09-24T06:43:11;4.47;;;2.90;;
11970;SDS011;6045;42.682;23.294;2022-09-24T06:45:38;3.33;;;2.35;;
11970;SDS011;6045;42.682;23.294;2022-09-24T06:48:09;3.88;;;2.92;;
11970;SDS011;6045;42.682;23.294;2022-09-24T06:50:38;3.22;;;2.92;;
11970;SDS011;6045;42.682;23.294;2022-09-24T06:53:06;3.30;;;2.83;;
11970;SDS011;6045;42.682;23.294;2022-09-24T06:55:34;3.53;;;3.25;;
11970;SDS011;6045;42.682;23.294;2022-09-24T06:58:04;4.47;;;3.05;;
11970;SDS011;6045;42.682;23.294;2022-09-24T07:00:32;3.78;;;2.47;;
11970;SDS011;6045;42.682;23.294;2022-09-24T07:03:00;4.90;;;3.45;;
11970;SDS011;6045;42.682;23.294;2022-09-24T07:05:27;3.15;;;2.83;;
11970;SDS011;6045;42.682;23.294;2022-09-24T07:07:54;3.72;;;2.80;;
11970;SDS011;6045;42.682;23.294;2022-09-24T07:10:21;5.43;;;3.05;;
11970;SDS011;6045;42.682;23.294;2022-09-24T07:12:49;4.47;;;2.80;;
11970;SDS011;6045;42.682;23.294;2022-09-24T07:15:17;3.35;;;2.60;;
11970;SDS011;6045;42.682;23.294;2022-09-24T07:17:44;3.38;;;2.97;;
11970;SDS011;6045;42.682;23.294;2022-09-24T07:20:11;4.93;;;3.30;;
11970;SDS011;6045;42.682;23.294;2022-09-24T07:22:38;3.85;;;2.28;;
11970;SDS011;6045;42.682;23.294;2022-09-24T07:25:06;3.25;;;2.80;;
11970;SDS011;6045;42.682;23.294;2022-09-24T07:27:34;5.18;;;2.70;;
11970;SDS011;6045;42.682;23.294;2022-09-24T07:30:03;2.90;;;2.30;;
11970;SDS011;6045;42.682;23.294;2022-09-24T07:32:32;3.95;;;2.80;;
11970;SDS011;6045;42.682;23.294;2022-09-24T07:34:59;4.03;;;2.60;;
11970;SDS011;6045;42.682;23.294;2022-09-24T07:37:26;3.60;;;2.83;;
11970;SDS011;6045;42.682;23.294;2022-09-24T07:39:53;2.95;;;2.47;;
11970;SDS011;6045;42.682;23.294;2022-09-24T07:42:20;4.22;;;2.85;;
11970;SDS011;6045;42.682;23.294;2022-09-24T07:44:47;3.67;;;2.97;;
11970;SDS011;6045;42.682;23.294;2022-09-24T07:47:16;2.90;;;2.47;;
11970;SDS011;6045;42.682;23.294;2022-09-24T07:49:44;3.75;;;2.92;;
11970;SDS011;6045;42.682;23.294;2022-09-24T07:52:14;4.55;;;3.33;;
11970;SDS011;6045;42.682;23.294;2022-09-24T07:54:41;3.45;;;2.95;;
11970;SDS011;6045;42.682;23.294;2022-09-24T07:57:10;3.67;;;2.72;;
11970;SDS011;6045;42.682;23.294;2022-09-24T07:59:38;6.30;;;3.30;;
11970;SDS011;6045;42.682;23.294;2022-09-24T08:02:09;2.67;;;2.45;;
11970;SDS011;6045;42.682;23.294;2022-09-24T08:04:40;3.13;;;2.58;;
11970;SDS011;6045;42.682;23.294;2022-09-24T08:07:10;3.58;;;2.88;;
11970;SDS011;6045;42.682;23.294;2022-09-24T08:09:37;3.08;;;2.45;;
11970;SDS011;6045;42.682;23.294;2022-09-24T08:12:04;4.72;;;2.90;;
11970;SDS011;6045;42.682;23.294;2022-09-24T08:14:32;3.88;;;2.17;;
11970;SDS011;6045;42.682;23.294;2022-09-24T08:16:59;3.10;;;2.80;;
11970;SDS011;6045;42.682;23.294;2022-09-24T08:19:26;3.92;;;3.30;;
11970;SDS011;6045;42.682;23.294;2022-09-24T08:21:55;3.20;;;2.80;;
11970;SDS011;6045;42.682;23.294;2022-09-24T08:24:24;3.63;;;2.80;;
11970;SDS011;6045;42.682;23.294;2022-09-24T08:26:51;8.82;;;3.63;;
11970;SDS011;6045;42.682;23.294;2022-09-24T08:29:19;3.78;;;2.53;;
11970;SDS011;6045;42.682;23.294;2022-09-24T08:31:46;3.03;;;2.70;;
11970;SDS011;6045;42.682;23.294;2022-09-24T08:34:13;4.65;;;3.42;;
11970;SDS011;6045;42.682;23.294;2022-09-24T08:36:40;4.35;;;2.90;;
11970;SDS011;6045;42.682;23.294;2022-09-24T08:39:07;5.57;;;3.13;;
11970;SDS011;6045;42.682;23.294;2022-09-24T08:41:49;4.55;;;2.80;;
11970;SDS011;6045;42.682;23.294;2022-09-24T08:44:21;5.10;;;3.00;;
11970;SDS011;6045;42.682;23.294;2022-09-24T08:47:12;3.30;;;3.00;;
11970;SDS011;6045;42.682;23.294;2022-09-24T08:49:48;5.95;;;3.13;;
11970;SDS011;6045;42.682;23.294;2022-09-24T08:52:29;3.00;;;2.78;;
11970;SDS011;6045;42.682;23.294;2022-09-24T08:55:06;3.47;;;2.67;;
11970;SDS011;6045;42.682;23.294;2022-09-24T08:57:45;3.30;;;2.63;;
11970;SDS011;6045;42.682;23.294;2022-09-24T09:00:21;2.85;;;2.58;;
11970;SDS011;6045;42.682;23.294;2022-09-24T09:02:49;4.43;;;2.67;;
11970;SDS011;6045;42.682;23.294;2022-09-24T09:05:25;2.67;;;2.45;;
11970;SDS011;6045;42.682;23.294;2022-09-24T09:08:08;4.03;;;2.95;;
11970;SDS011;6045;42.682;23.294;2022-09-24T09:10:39;3.17;;;2.63;;
11970;SDS011;6045;42.682;23.294;2022-09-24T09:13:17;3.70;;;2.65;;
11970;SDS011;6045;42.682;23.294;2022-09-24T09:15:50;3.35;;;2.50;;
11970;SDS011;6045;42.682;23.294;2022-09-24T09:18:25;3.58;;;3.13;;
11970;SDS011;6045;42.682;23.294;2022-09-24T09:20:58;3.40;;;3.08;;
11970;SDS011;6045;42.682;23.294;2022-09-24T09:23:33;4.90;;;3.00;;
11970;SDS011;6045;42.682;23.294;2022-09-24T09:26:07;4.25;;;2.75;;
11970;SDS011;6045;42.682;23.294;2022-09-24T09:28:38;3.45;;;3.15;;
11970;SDS011;6045;42.682;23.294;2022-09-24T09:31:06;3.78;;;2.55;;
11970;SDS011;6045;42.682;23.294;2022-09-24T09:33:49;3.40;;;3.10;;
11970;SDS011;6045;42.682;23.294;2022-09-24T09:36:32;3.20;;;2.80;;
11970;SDS011;6045;42.682;23.294;2022-09-24T09:39:14;5.30;;;3.33;;
11970;SDS011;6045;42.682;23.294;2022-09-24T09:42:00;4.03;;;2.83;;
11970;SDS011;6045;42.682;23.294;2022-09-24T09:44:37;4.10;;;3.03;;
11970;SDS011;6045;42.682;23.294;2022-09-24T09:47:10;2.30;;;2.10;;
11970;SDS011;6045;42.682;23.294;2022-09-24T09:49:44;3.20;;;2.63;;
11970;SDS011;6045;42.682;23.294;2022-09-24T09:52:14;3.75;;;2.65;;
11970;SDS011;6045;42.682;23.294;2022-09-24T09:54:45;3.15;;;2.50;;
11970;SDS011;6045;42.682;23.294;2022-09-24T09:57:13;2.47;;;2.28;;
11970;SDS011;6045;42.682;23.294;2022-09-24T09:59:48;3.08;;;2.15;;
11970;SDS011;6045;42.682;23.294;2022-09-24T10:02:20;3.13;;;2.22;;
11970;SDS011;6045;42.682;23.294;2022-09-24T10:04:51;3.28;;;2.20;;
11970;SDS011;6045;42.682;23.294;2022-09-24T10:07:20;2.35;;;1.92;;
11970;SDS011;6045;42.682;23.294;2022-09-24T10:09:56;2.20;;;1.90;;
11970;SDS011;6045;42.682;23.294;2022-09-24T10:12:25;3.45;;;2.45;;
11970;SDS011;6045;42.682;23.294;2022-09-24T10:14:57;2.60;;;2.33;;
11970;SDS011;6045;42.682;23.294;2022-09-24T10:17:27;3.42;;;2.45;;
11970;SDS011;6045;42.682;23.294;2022-09-24T10:20:00;1.33;;;1.23;;
11970;SDS011;6045;42.682;23.294;2022-09-24T10:22:32;1.40;;;1.30;;
11970;SDS011;6045;42.682;23.294;2022-09-24T10:25:02;1.65;;;1.20;;
11970;SDS011;6045;42.682;23.294;2022-09-24T10:27:31;1.40;;;1.30;;
11970;SDS011;6045;42.682;23.294;2022-09-24T10:30:03;1.20;;;1.05;;
11970;SDS011;6045;42.682;23.294;2022-09-24T10:32:56;1.52;;;1.10;;
11970;SDS011;6045;42.682;23.294;2022-09-24T10:35:25;1.27;;;1.17;;
11970;SDS011;6045;42.682;23.294;2022-09-24T10:39:13;1.45;;;1.33;;
11970;SDS011;6045;42.682;23.294;2022-09-24T10:41:24;1.30;;;1.20;;
11970;SDS011;6045;42.682;23.294;2022-09-24T10:43:54;1.55;;;1.45;;
11970;SDS011;6045;42.682;23.294;2022-09-24T10:46:31;0.82;;;0.82;;
11970;SDS011;6045;42.682;23.294;2022-09-24T10:49:11;1.58;;;1.05;;
11970;SDS011;6045;42.682;23.294;2022-09-24T10:51:52;0.90;;;0.90;;
11970;SDS011;6045;42.682;23.294;2022-09-24T10:54:31;0.88;;;0.85;;
11970;SDS011;6045;42.682;23.294;2022-09-24T10:57:10;0.70;;;0.70;;
11970;SDS011;6045;42.682;23.294;2022-09-24T10:59:49;2.00;;;1.10;;
11970;SDS011;6045;42.682;23.294;2022-09-24T11:02:34;0.98;;;0.90;;
11970;SDS011;6045;42.682;23.294;2022-09-24T11:05:18;1.00;;;0.70;;
11970;SDS011;6045;42.682;23.294;2022-09-24T11:07:51;1.10;;;1.00;;
11970;SDS011;6045;42.682;23.294;2022-09-24T11:10:38;1.33;;;1.00;;
11970;SDS011;6045;42.682;23.294;2022-09-24T11:13:24;1.13;;;0.90;;
11970;SDS011;6045;42.682;23.294;2022-09-24T11:16:08;1.42;;;1.27;;
11970;SDS011;6045;42.682;23.294;2022-09-24T11:18:49;1.20;;;1.10;;
11970;SDS011;6045;42.682;23.294;2022-09-24T11:21:27;1.23;;;1.05;;
11970;SDS011;6045;42.682;23.294;2022-09-24T11:24:03;0.98;;;0.98;;
11970;SDS011;6045;42.682;23.294;2022-09-24T11:26:47;0.75;;;0.68;;
11970;SDS011;6045;42.682;23.294;2022-09-24T11:29:25;1.00;;;0.90;;
11970;SDS011;6045;42.682;23.294;2022-09-24T11:32:03;0.85;;;0.85;;
11970;SDS011;6045;42.682;23.294;2022-09-24T11:34:44;1.52;;;0.95;;
11970;SDS011;6045;42.682;23.294;2022-09-24T11:37:31;1.60;;;1.27;;
11970;SDS011;6045;42.682;23.294;2022-09-24T11:40:15;2.22;;;1.48;;
11970;SDS011;6045;42.682;23.294;2022-09-24T11:42:54;1.10;;;1.00;;
11970;SDS011;6045;42.682;23.294;2022-09-24T11:45:45;0.88;;;0.60;;
11970;SDS011;6045;42.682;23.294;2022-09-24T11:48:24;0.90;;;0.90;;
11970;SDS011;6045;42.682;23.294;2022-09-24T11:51:08;1.10;;;0.82;;
11970;SDS011;6045;42.682;23.294;2022-09-24T11:53:49;0.90;;;0.90;;
11970;SDS011;6045;42.682;23.294;2022-09-24T11:56:22;1.10;;;0.80;;
11970;SDS011;6045;42.682;23.294;2022-09-24T11:58:54;0.93;;;0.82;;
11970;SDS011;6045;42.682;23.294;2022-09-24T12:01:25;1.08;;;0.93;;
11970;SDS011;6045;42.682;23.294;2022-09-24T12:07:11;1.27;;;1.20;;
11970;SDS011;6045;42.682;23.294;2022-09-24T12:09:57;1.27;;;1.10;;
11970;SDS011;6045;42.682;23.294;2022-09-24T12:12:51;0.85;;;0.68;;
11970;SDS011;6045;42.682;23.294;2022-09-24T12:18:45;1.55;;;1.20;;
11970;SDS011;6045;42.682;23.294;2022-09-24T12:21:32;1.40;;;1.10;;
11970;SDS011;6045;42.682;23.294;2022-09-24T12:24:08;0.95;;;0.95;;
11970;SDS011;6045;42.682;23.294;2022-09-24T12:26:39;1.00;;;0.88;;
11970;SDS011;6045;42.682;23.294;2022-09-24T12:29:19;1.02;;;0.90;;
11970;SDS011;6045;42.682;23.294;2022-09-24T12:32:16;2.25;;;1.10;;
11970;SDS011;6045;42.682;23.294;2022-09-24T12:35:06;1.90;;;1.35;;
11970;SDS011;6045;42.682;23.294;2022-09-24T12:37:43;1.08;;;0.98;;
11970;SDS011;6045;42.682;23.294;2022-09-24T12:40:18;1.52;;;1.20;;
11970;SDS011;6045;42.682;23.294;2022-09-24T12:42:57;1.55;;;1.30;;
11970;SDS011;6045;42.682;23.294;2022-09-24T12:45:28;2.10;;;1.52;;
11970;SDS011;6045;42.682;23.294;2022-09-24T12:47:57;1.30;;;1.02;;
11970;SDS011;6045;42.682;23.294;2022-09-24T12:50:27;1.58;;;1.38;;
11970;SDS011;6045;42.682;23.294;2022-09-24T12:52:57;1.10;;;0.90;;
11970;SDS011;6045;42.682;23.294;2022-09-24T12:55:26;1.13;;;1.05;;
11970;SDS011;6045;42.682;23.294;2022-09-24T12:57:54;1.30;;;1.20;;
11970;SDS011;6045;42.682;23.294;2022-09-24T13:00:37;0.60;;;0.60;;
11970;SDS011;6045;42.682;23.294;2022-09-24T13:03:06;1.58;;;1.05;;
11970;SDS011;6045;42.682;23.294;2022-09-24T13:17:06;0.68;;;0.68;;
11970;SDS011;6045;42.682;23.294;2022-09-24T13:19:34;1.52;;;1.17;;
11970;SDS011;6045;42.682;23.294;2022-09-24T13:22:05;1.23;;;1.15;;
11970;SDS011;6045;42.682;23.294;2022-09-24T13:24:45;1.50;;;1.33;;
11970;SDS011;6045;42.682;23.294;2022-09-24T13:27:19;1.10;;;1.00;;
11970;SDS011;6045;42.682;23.294;2022-09-24T13:29:51;1.77;;;1.02;;
11970;SDS011;6045;42.682;23.294;2022-09-24T13:32:30;1.23;;;1.13;;
11970;SDS011;6045;42.682;23.294;2022-09-24T13:35:02;1.20;;;1.05;;
11970;SDS011;6045;42.682;23.294;2022-09-24T13:37:33;1.60;;;1.50;;
11970;SDS011;6045;42.682;23.294;2022-09-24T13:40:05;4.05;;;1.50;;
11970;SDS011;6045;42.682;23.294;2022-09-24T13:42:44;1.27;;;1.00;;
11970;SDS011;6045;42.682;23.294;2022-09-24T13:52:02;1.42;;;1.17;;
11970;SDS011;6045;42.682;23.294;2022-09-24T13:55:16;1.02;;;0.98;;
11970;SDS011;6045;42.682;23.294;2022-09-24T14:01:12;2.10;;;1.23;;
11970;SDS011;6045;42.682;23.294;2022-09-24T14:03:54;2.00;;;1.02;;
11970;SDS011;6045;42.682;23.294;2022-09-24T14:13:17;1.67;;;1.40;;
11970;SDS011;6045;42.682;23.294;2022-09-24T14:15:50;1.33;;;1.23;;
11970;SDS011;6045;42.682;23.294;2022-09-24T14:18:21;1.20;;;1.10;;
11970;SDS011;6045;42.682;23.294;2022-09-24T14:29:17;1.45;;;1.10;;
11970;SDS011;6045;42.682;23.294;2022-09-24T14:31:48;1.52;;;1.42;;
11970;SDS011;6045;42.682;23.294;2022-09-24T14:34:21;1.70;;;1.40;;
11970;SDS011;6045;42.682;23.294;2022-09-24T14:36:52;1.38;;;1.27;;
11970;SDS011;6045;42.682;23.294;2022-09-24T14:39:23;1.90;;;1.10;;
11970;SDS011;6045;42.682;23.294;2022-09-24T14:42:07;0.82;;;0.82;;
11970;SDS011;6045;42.682;23.294;2022-09-24T14:44:37;1.85;;;1.63;;
11970;SDS011;6045;42.682;23.294;2022-09-24T14:47:19;1.50;;;1.30;;
11970;SDS011;6045;42.682;23.294;2022-09-24T14:49:52;1.65;;;1.23;;
11970;SDS011;6045;42.682;23.294;2022-09-24T14:52:27;1.88;;;1.30;;
11970;SDS011;6045;42.682;23.294;2022-09-24T14:55:01;1.42;;;1.33;;
11970;SDS011;6045;42.682;23.294;2022-09-24T14:57:38;1.38;;;1.23;;
11970;SDS011;6045;42.682;23.294;2022-09-24T15:00:19;2.50;;;1.45;;
11970;SDS011;6045;42.682;23.294;2022-09-24T15:02:47;2.42;;;1.85;;
11970;SDS011;6045;42.682;23.294;2022-09-24T15:05:21;3.90;;;1.95;;
11970;SDS011;6045;42.682;23.294;2022-09-24T15:07:49;1.90;;;1.75;;
11970;SDS011;6045;42.682;23.294;2022-09-24T15:10:16;2.65;;;1.63;;
11970;SDS011;6045;42.682;23.294;2022-09-24T15:12:45;1.95;;;1.50;;
11970;SDS011;6045;42.682;23.294;2022-09-24T15:15:24;1.23;;;1.10;;
11970;SDS011;6045;42.682;23.294;2022-09-24T15:17:54;2.15;;;1.30;;
11970;SDS011;6045;42.682;23.294;2022-09-24T15:20:21;1.95;;;1.40;;
11970;SDS011;6045;42.682;23.294;2022-09-24T15:22:48;2.00;;;1.40;;
11970;SDS011;6045;42.682;23.294;2022-09-24T15:25:15;1.65;;;1.20;;
11970;SDS011;6045;42.682;23.294;2022-09-24T15:27:41;2.20;;;1.38;;
11970;SDS011;6045;42.682;23.294;2022-09-24T15:30:10;1.25;;;1.15;;
11970;SDS011;6045;42.682;23.294;2022-09-24T15:32:45;1.42;;;1.25;;
11970;SDS011;6045;42.682;23.294;2022-09-24T15:35:12;1.48;;;1.15;;
11970;SDS011;6045;42.682;23.294;2022-09-24T15:37:40;4.85;;;3.05;;
11970;SDS011;6045;42.682;23.294;2022-09-24T15:40:15;5.13;;;3.67;;
11970;SDS011;6045;42.682;23.294;2022-09-24T15:42:46;2.50;;;1.80;;
11970;SDS011;6045;42.682;23.294;2022-09-24T15:45:14;1.75;;;1.33;;
11970;SDS011;6045;42.682;23.294;2022-09-24T15:47:44;1.50;;;1.40;;
11970;SDS011;6045;42.682;23.294;2022-09-24T15:50:11;2.50;;;1.50;;
11970;SDS011;6045;42.682;23.294;2022-09-24T15:52:41;1.77;;;1.45;;
11970;SDS011;6045;42.682;23.294;2022-09-24T15:55:12;2.72;;;1.58;;
11970;SDS011;6045;42.682;23.294;2022-09-24T15:57:42;1.20;;;1.08;;
11970;SDS011;6045;42.682;23.294;2022-09-24T16:00:14;1.65;;;1.55;;
11970;SDS011;6045;42.682;23.294;2022-09-24T16:08:57;1.30;;;1.13;;